<?xml version="1.0" encoding="UTF-8" standalone="no" ?>
<gpx xmlns="http://www.topografix.com/GPX/1/1" xmlns:xsi="http://www.w3.org/2001/XMLSchema-instance" xsi:schemaLocation="http://www.topografix.com/GPX/1/1 http://www.topografix.com/GPX/1/1/gpx.xsd" version="1.1" creator="VisuGPX - https://www.visugpx.com">
  <metadata>
    <name>Morêt sur Loing 12/12/18</name>
    <desc><![CDATA[Randonnée autour de Morêt-Veneux entre la forêt et la ville]]></desc>
  </metadata>
  <trk>
    <name><![CDATA[Morêt 12-12-18 vpa]]></name>
    <trkseg>
      <trkpt lat="48.36842" lon="2.80584">
        <ele>90.02</ele>
        <time>2018-12-13T12:34:17Z</time>
      </trkpt>
      <trkpt lat="48.36842" lon="2.80584">
        <ele>90.02</ele>
        <time>2018-12-13T12:34:18Z</time>
      </trkpt>
      <trkpt lat="48.3684" lon="2.80583">
        <ele>92.42</ele>
        <time>2018-12-13T12:34:22Z</time>
      </trkpt>
      <trkpt lat="48.36836" lon="2.80579">
        <ele>93.87</ele>
        <time>2018-12-13T12:34:38Z</time>
      </trkpt>
      <trkpt lat="48.36832" lon="2.80574">
        <ele>91.94</ele>
        <time>2018-12-13T12:34:53Z</time>
      </trkpt>
      <trkpt lat="48.36827" lon="2.80563">
        <ele>92.9</ele>
        <time>2018-12-13T12:35:08Z</time>
      </trkpt>
      <trkpt lat="48.3682" lon="2.80552">
        <ele>92.9</ele>
        <time>2018-12-13T12:35:22Z</time>
      </trkpt>
      <trkpt lat="48.36814" lon="2.80543">
        <ele>93.39</ele>
        <time>2018-12-13T12:35:37Z</time>
      </trkpt>
      <trkpt lat="48.36809" lon="2.80536">
        <ele>93.39</ele>
        <time>2018-12-13T12:36:09Z</time>
      </trkpt>
      <trkpt lat="48.36803" lon="2.80527">
        <ele>93.39</ele>
        <time>2018-12-13T12:36:24Z</time>
      </trkpt>
      <trkpt lat="48.36793" lon="2.80517">
        <ele>93.39</ele>
        <time>2018-12-13T12:36:41Z</time>
      </trkpt>
      <trkpt lat="48.3679" lon="2.80506">
        <ele>93.39</ele>
        <time>2018-12-13T12:36:55Z</time>
      </trkpt>
      <trkpt lat="48.36796" lon="2.80497">
        <ele>93.87</ele>
        <time>2018-12-13T12:37:12Z</time>
      </trkpt>
      <trkpt lat="48.36809" lon="2.80484">
        <ele>93.39</ele>
        <time>2018-12-13T12:37:31Z</time>
      </trkpt>
      <trkpt lat="48.36823" lon="2.80473">
        <ele>92.9</ele>
        <time>2018-12-13T12:37:51Z</time>
      </trkpt>
      <trkpt lat="48.36838" lon="2.80462">
        <ele>92.42</ele>
        <time>2018-12-13T12:38:09Z</time>
      </trkpt>
      <trkpt lat="48.36856" lon="2.80446">
        <ele>91.94</ele>
        <time>2018-12-13T12:38:29Z</time>
      </trkpt>
      <trkpt lat="48.36879" lon="2.80427">
        <ele>91.46</ele>
        <time>2018-12-13T12:38:51Z</time>
      </trkpt>
      <trkpt lat="48.36887" lon="2.8042">
        <ele>91.46</ele>
        <time>2018-12-13T12:38:59Z</time>
      </trkpt>
      <trkpt lat="48.36902" lon="2.80394">
        <ele>90.5</ele>
        <time>2018-12-13T12:39:19Z</time>
      </trkpt>
      <trkpt lat="48.3691" lon="2.80369">
        <ele>90.02</ele>
        <time>2018-12-13T12:39:38Z</time>
      </trkpt>
      <trkpt lat="48.3691" lon="2.80344">
        <ele>89.54</ele>
        <time>2018-12-13T12:39:53Z</time>
      </trkpt>
      <trkpt lat="48.36908" lon="2.80317">
        <ele>89.06</ele>
        <time>2018-12-13T12:40:10Z</time>
      </trkpt>
      <trkpt lat="48.36911" lon="2.80284">
        <ele>88.58</ele>
        <time>2018-12-13T12:40:29Z</time>
      </trkpt>
      <trkpt lat="48.36922" lon="2.80259">
        <ele>88.1</ele>
        <time>2018-12-13T12:40:49Z</time>
      </trkpt>
      <trkpt lat="48.36935" lon="2.80235">
        <ele>87.62</ele>
        <time>2018-12-13T12:41:08Z</time>
      </trkpt>
      <trkpt lat="48.36943" lon="2.80205">
        <ele>86.18</ele>
        <time>2018-12-13T12:41:26Z</time>
      </trkpt>
      <trkpt lat="48.36943" lon="2.80178">
        <ele>85.69</ele>
        <time>2018-12-13T12:41:44Z</time>
      </trkpt>
      <trkpt lat="48.36941" lon="2.8015">
        <ele>85.21</ele>
        <time>2018-12-13T12:42:02Z</time>
      </trkpt>
      <trkpt lat="48.36935" lon="2.80126">
        <ele>85.21</ele>
        <time>2018-12-13T12:42:18Z</time>
      </trkpt>
      <trkpt lat="48.36932" lon="2.801">
        <ele>85.21</ele>
        <time>2018-12-13T12:42:32Z</time>
      </trkpt>
      <trkpt lat="48.36929" lon="2.80072">
        <ele>85.21</ele>
        <time>2018-12-13T12:42:52Z</time>
      </trkpt>
      <trkpt lat="48.36926" lon="2.80043">
        <ele>84.73</ele>
        <time>2018-12-13T12:43:08Z</time>
      </trkpt>
      <trkpt lat="48.36923" lon="2.80027">
        <ele>84.73</ele>
        <time>2018-12-13T12:43:25Z</time>
      </trkpt>
      <trkpt lat="48.36916" lon="2.80019">
        <ele>85.69</ele>
        <time>2018-12-13T12:43:56Z</time>
      </trkpt>
      <trkpt lat="48.369" lon="2.79991">
        <ele>85.69</ele>
        <time>2018-12-13T12:44:13Z</time>
      </trkpt>
      <trkpt lat="48.36884" lon="2.79966">
        <ele>85.69</ele>
        <time>2018-12-13T12:44:30Z</time>
      </trkpt>
      <trkpt lat="48.36875" lon="2.79939">
        <ele>86.18</ele>
        <time>2018-12-13T12:44:47Z</time>
      </trkpt>
      <trkpt lat="48.36882" lon="2.79911">
        <ele>86.66</ele>
        <time>2018-12-13T12:45:01Z</time>
      </trkpt>
      <trkpt lat="48.36892" lon="2.79878">
        <ele>86.18</ele>
        <time>2018-12-13T12:45:19Z</time>
      </trkpt>
      <trkpt lat="48.36897" lon="2.79845">
        <ele>85.69</ele>
        <time>2018-12-13T12:45:38Z</time>
      </trkpt>
      <trkpt lat="48.36911" lon="2.79851">
        <ele>85.69</ele>
        <time>2018-12-13T12:45:56Z</time>
      </trkpt>
      <trkpt lat="48.36932" lon="2.79871">
        <ele>85.21</ele>
        <time>2018-12-13T12:46:15Z</time>
      </trkpt>
      <trkpt lat="48.36952" lon="2.79889">
        <ele>85.21</ele>
        <time>2018-12-13T12:46:35Z</time>
      </trkpt>
      <trkpt lat="48.36967" lon="2.79906">
        <ele>85.21</ele>
        <time>2018-12-13T12:46:50Z</time>
      </trkpt>
      <trkpt lat="48.36975" lon="2.79937">
        <ele>85.21</ele>
        <time>2018-12-13T12:47:09Z</time>
      </trkpt>
      <trkpt lat="48.36987" lon="2.79962">
        <ele>84.73</ele>
        <time>2018-12-13T12:47:28Z</time>
      </trkpt>
      <trkpt lat="48.36998" lon="2.7997">
        <ele>84.25</ele>
        <time>2018-12-13T12:47:42Z</time>
      </trkpt>
      <trkpt lat="48.37004" lon="2.80005">
        <ele>83.77</ele>
        <time>2018-12-13T12:48:01Z</time>
      </trkpt>
      <trkpt lat="48.3702" lon="2.8003">
        <ele>82.81</ele>
        <time>2018-12-13T12:48:18Z</time>
      </trkpt>
      <trkpt lat="48.37029" lon="2.80054">
        <ele>81.85</ele>
        <time>2018-12-13T12:48:35Z</time>
      </trkpt>
      <trkpt lat="48.37031" lon="2.80072">
        <ele>81.85</ele>
        <time>2018-12-13T12:48:50Z</time>
      </trkpt>
      <trkpt lat="48.37039" lon="2.80095">
        <ele>81.37</ele>
        <time>2018-12-13T12:49:07Z</time>
      </trkpt>
      <trkpt lat="48.3705" lon="2.80121">
        <ele>83.29</ele>
        <time>2018-12-13T12:49:26Z</time>
      </trkpt>
      <trkpt lat="48.37067" lon="2.80138">
        <ele>82.81</ele>
        <time>2018-12-13T12:49:43Z</time>
      </trkpt>
      <trkpt lat="48.37078" lon="2.80146">
        <ele>80.41</ele>
        <time>2018-12-13T12:50:02Z</time>
      </trkpt>
      <trkpt lat="48.37085" lon="2.8015">
        <ele>78.48</ele>
        <time>2018-12-13T12:50:11Z</time>
      </trkpt>
      <trkpt lat="48.37096" lon="2.80168">
        <ele>77.52</ele>
        <time>2018-12-13T12:50:26Z</time>
      </trkpt>
      <trkpt lat="48.37108" lon="2.8018">
        <ele>76.08</ele>
        <time>2018-12-13T12:50:45Z</time>
      </trkpt>
      <trkpt lat="48.37123" lon="2.802">
        <ele>75.6</ele>
        <time>2018-12-13T12:51:05Z</time>
      </trkpt>
      <trkpt lat="48.37133" lon="2.80222">
        <ele>74.16</ele>
        <time>2018-12-13T12:51:24Z</time>
      </trkpt>
      <trkpt lat="48.37148" lon="2.80237">
        <ele>73.2</ele>
        <time>2018-12-13T12:51:40Z</time>
      </trkpt>
      <trkpt lat="48.37165" lon="2.80258">
        <ele>72.24</ele>
        <time>2018-12-13T12:51:59Z</time>
      </trkpt>
      <trkpt lat="48.3718" lon="2.80274">
        <ele>71.27</ele>
        <time>2018-12-13T12:52:16Z</time>
      </trkpt>
      <trkpt lat="48.37199" lon="2.80285">
        <ele>69.83</ele>
        <time>2018-12-13T12:52:35Z</time>
      </trkpt>
      <trkpt lat="48.37216" lon="2.80297">
        <ele>68.87</ele>
        <time>2018-12-13T12:52:53Z</time>
      </trkpt>
      <trkpt lat="48.37229" lon="2.80283">
        <ele>68.87</ele>
        <time>2018-12-13T12:53:10Z</time>
      </trkpt>
      <trkpt lat="48.37233" lon="2.80255">
        <ele>70.31</ele>
        <time>2018-12-13T12:53:26Z</time>
      </trkpt>
      <trkpt lat="48.37242" lon="2.80224">
        <ele>72.24</ele>
        <time>2018-12-13T12:53:45Z</time>
      </trkpt>
      <trkpt lat="48.37258" lon="2.80201">
        <ele>73.2</ele>
        <time>2018-12-13T12:54:06Z</time>
      </trkpt>
      <trkpt lat="48.37272" lon="2.80176">
        <ele>75.12</ele>
        <time>2018-12-13T12:54:26Z</time>
      </trkpt>
      <trkpt lat="48.37291" lon="2.80155">
        <ele>76.08</ele>
        <time>2018-12-13T12:54:46Z</time>
      </trkpt>
      <trkpt lat="48.37304" lon="2.80132">
        <ele>77.52</ele>
        <time>2018-12-13T12:55:06Z</time>
      </trkpt>
      <trkpt lat="48.37307" lon="2.80107">
        <ele>78.48</ele>
        <time>2018-12-13T12:55:22Z</time>
      </trkpt>
      <trkpt lat="48.3731" lon="2.80103">
        <ele>78.97</ele>
        <time>2018-12-13T12:55:29Z</time>
      </trkpt>
      <trkpt lat="48.37319" lon="2.80124">
        <ele>78.48</ele>
        <time>2018-12-13T12:55:46Z</time>
      </trkpt>
      <trkpt lat="48.37327" lon="2.80141">
        <ele>77.52</ele>
        <time>2018-12-13T12:56:00Z</time>
      </trkpt>
      <trkpt lat="48.3734" lon="2.80167">
        <ele>76.56</ele>
        <time>2018-12-13T12:56:18Z</time>
      </trkpt>
      <trkpt lat="48.37354" lon="2.80196">
        <ele>75.12</ele>
        <time>2018-12-13T12:56:40Z</time>
      </trkpt>
      <trkpt lat="48.37365" lon="2.80221">
        <ele>75.12</ele>
        <time>2018-12-13T12:56:58Z</time>
      </trkpt>
      <trkpt lat="48.37377" lon="2.80236">
        <ele>73.68</ele>
        <time>2018-12-13T12:57:13Z</time>
      </trkpt>
      <trkpt lat="48.37386" lon="2.8026">
        <ele>73.2</ele>
        <time>2018-12-13T12:57:30Z</time>
      </trkpt>
      <trkpt lat="48.37393" lon="2.80278">
        <ele>73.2</ele>
        <time>2018-12-13T12:57:45Z</time>
      </trkpt>
      <trkpt lat="48.37398" lon="2.80282">
        <ele>72.72</ele>
        <time>2018-12-13T12:57:50Z</time>
      </trkpt>
      <trkpt lat="48.37406" lon="2.80307">
        <ele>72.72</ele>
        <time>2018-12-13T12:58:07Z</time>
      </trkpt>
      <trkpt lat="48.37411" lon="2.80316">
        <ele>72.24</ele>
        <time>2018-12-13T12:58:16Z</time>
      </trkpt>
      <trkpt lat="48.37417" lon="2.80326">
        <ele>71.76</ele>
        <time>2018-12-13T12:58:25Z</time>
      </trkpt>
      <trkpt lat="48.37436" lon="2.80303">
        <ele>72.24</ele>
        <time>2018-12-13T12:58:45Z</time>
      </trkpt>
      <trkpt lat="48.37444" lon="2.80274">
        <ele>73.68</ele>
        <time>2018-12-13T12:59:02Z</time>
      </trkpt>
      <trkpt lat="48.37454" lon="2.80258">
        <ele>73.68</ele>
        <time>2018-12-13T12:59:19Z</time>
      </trkpt>
      <trkpt lat="48.37471" lon="2.80272">
        <ele>72.72</ele>
        <time>2018-12-13T12:59:37Z</time>
      </trkpt>
      <trkpt lat="48.37472" lon="2.80273">
        <ele>72.72</ele>
        <time>2018-12-13T12:59:38Z</time>
      </trkpt>
      <trkpt lat="48.37493" lon="2.80293">
        <ele>71.27</ele>
        <time>2018-12-13T12:59:59Z</time>
      </trkpt>
      <trkpt lat="48.37511" lon="2.803">
        <ele>71.27</ele>
        <time>2018-12-13T13:00:14Z</time>
      </trkpt>
      <trkpt lat="48.37514" lon="2.80291">
        <ele>71.27</ele>
        <time>2018-12-13T13:00:20Z</time>
      </trkpt>
      <trkpt lat="48.37523" lon="2.80262">
        <ele>71.27</ele>
        <time>2018-12-13T13:00:40Z</time>
      </trkpt>
      <trkpt lat="48.37535" lon="2.80229">
        <ele>69.83</ele>
        <time>2018-12-13T13:01:02Z</time>
      </trkpt>
      <trkpt lat="48.37546" lon="2.802">
        <ele>69.83</ele>
        <time>2018-12-13T13:01:22Z</time>
      </trkpt>
      <trkpt lat="48.37555" lon="2.80175">
        <ele>68.87</ele>
        <time>2018-12-13T13:01:40Z</time>
      </trkpt>
      <trkpt lat="48.37566" lon="2.80146">
        <ele>69.35</ele>
        <time>2018-12-13T13:02:00Z</time>
      </trkpt>
      <trkpt lat="48.37576" lon="2.8012">
        <ele>67.91</ele>
        <time>2018-12-13T13:02:18Z</time>
      </trkpt>
      <trkpt lat="48.37572" lon="2.801">
        <ele>68.87</ele>
        <time>2018-12-13T13:02:36Z</time>
      </trkpt>
      <trkpt lat="48.37557" lon="2.80087">
        <ele>69.35</ele>
        <time>2018-12-13T13:02:53Z</time>
      </trkpt>
      <trkpt lat="48.37542" lon="2.80072">
        <ele>69.83</ele>
        <time>2018-12-13T13:03:12Z</time>
      </trkpt>
      <trkpt lat="48.37529" lon="2.8006">
        <ele>70.31</ele>
        <time>2018-12-13T13:03:28Z</time>
      </trkpt>
      <trkpt lat="48.37514" lon="2.80044">
        <ele>71.27</ele>
        <time>2018-12-13T13:03:46Z</time>
      </trkpt>
      <trkpt lat="48.37501" lon="2.80033">
        <ele>73.2</ele>
        <time>2018-12-13T13:04:02Z</time>
      </trkpt>
      <trkpt lat="48.37485" lon="2.80022">
        <ele>75.12</ele>
        <time>2018-12-13T13:04:20Z</time>
      </trkpt>
      <trkpt lat="48.37472" lon="2.80001">
        <ele>76.56</ele>
        <time>2018-12-13T13:04:39Z</time>
      </trkpt>
      <trkpt lat="48.37471" lon="2.79981">
        <ele>76.56</ele>
        <time>2018-12-13T13:04:53Z</time>
      </trkpt>
      <trkpt lat="48.3748" lon="2.79958">
        <ele>76.08</ele>
        <time>2018-12-13T13:05:08Z</time>
      </trkpt>
      <trkpt lat="48.37485" lon="2.79952">
        <ele>76.08</ele>
        <time>2018-12-13T13:05:13Z</time>
      </trkpt>
      <trkpt lat="48.37497" lon="2.79928">
        <ele>75.12</ele>
        <time>2018-12-13T13:05:31Z</time>
      </trkpt>
      <trkpt lat="48.375" lon="2.79923">
        <ele>75.6</ele>
        <time>2018-12-13T13:05:35Z</time>
      </trkpt>
      <trkpt lat="48.37513" lon="2.79899">
        <ele>74.16</ele>
        <time>2018-12-13T13:05:53Z</time>
      </trkpt>
      <trkpt lat="48.37526" lon="2.79874">
        <ele>73.68</ele>
        <time>2018-12-13T13:06:12Z</time>
      </trkpt>
      <trkpt lat="48.37537" lon="2.79843">
        <ele>73.68</ele>
        <time>2018-12-13T13:06:32Z</time>
      </trkpt>
      <trkpt lat="48.37535" lon="2.79837">
        <ele>73.2</ele>
        <time>2018-12-13T13:06:35Z</time>
      </trkpt>
      <trkpt lat="48.37518" lon="2.79814">
        <ele>74.64</ele>
        <time>2018-12-13T13:06:55Z</time>
      </trkpt>
      <trkpt lat="48.37504" lon="2.79796">
        <ele>76.56</ele>
        <time>2018-12-13T13:07:13Z</time>
      </trkpt>
      <trkpt lat="48.37491" lon="2.7978">
        <ele>77.04</ele>
        <time>2018-12-13T13:07:29Z</time>
      </trkpt>
      <trkpt lat="48.37479" lon="2.79765">
        <ele>78</ele>
        <time>2018-12-13T13:07:44Z</time>
      </trkpt>
      <trkpt lat="48.37464" lon="2.79746">
        <ele>78.97</ele>
        <time>2018-12-13T13:08:02Z</time>
      </trkpt>
      <trkpt lat="48.37446" lon="2.79721">
        <ele>80.41</ele>
        <time>2018-12-13T13:08:23Z</time>
      </trkpt>
      <trkpt lat="48.37435" lon="2.79707">
        <ele>81.37</ele>
        <time>2018-12-13T13:08:40Z</time>
      </trkpt>
      <trkpt lat="48.37434" lon="2.79701">
        <ele>80.89</ele>
        <time>2018-12-13T13:08:49Z</time>
      </trkpt>
      <trkpt lat="48.37429" lon="2.79685">
        <ele>80.89</ele>
        <time>2018-12-13T13:09:08Z</time>
      </trkpt>
      <trkpt lat="48.37432" lon="2.7968">
        <ele>81.85</ele>
        <time>2018-12-13T13:09:30Z</time>
      </trkpt>
      <trkpt lat="48.3744" lon="2.79681">
        <ele>81.85</ele>
        <time>2018-12-13T13:09:51Z</time>
      </trkpt>
      <trkpt lat="48.37448" lon="2.79656">
        <ele>81.85</ele>
        <time>2018-12-13T13:10:09Z</time>
      </trkpt>
      <trkpt lat="48.37464" lon="2.79626">
        <ele>81.85</ele>
        <time>2018-12-13T13:10:32Z</time>
      </trkpt>
      <trkpt lat="48.37474" lon="2.79629">
        <ele>82.81</ele>
        <time>2018-12-13T13:10:50Z</time>
      </trkpt>
      <trkpt lat="48.37486" lon="2.79633">
        <ele>82.33</ele>
        <time>2018-12-13T13:11:06Z</time>
      </trkpt>
      <trkpt lat="48.37488" lon="2.7963">
        <ele>82.81</ele>
        <time>2018-12-13T13:11:08Z</time>
      </trkpt>
      <trkpt lat="48.37505" lon="2.79608">
        <ele>82.81</ele>
        <time>2018-12-13T13:11:27Z</time>
      </trkpt>
      <trkpt lat="48.37514" lon="2.79594">
        <ele>83.29</ele>
        <time>2018-12-13T13:11:37Z</time>
      </trkpt>
      <trkpt lat="48.37523" lon="2.79581">
        <ele>83.77</ele>
        <time>2018-12-13T13:11:49Z</time>
      </trkpt>
      <trkpt lat="48.37536" lon="2.79564">
        <ele>84.25</ele>
        <time>2018-12-13T13:12:05Z</time>
      </trkpt>
      <trkpt lat="48.37551" lon="2.79542">
        <ele>84.73</ele>
        <time>2018-12-13T13:12:23Z</time>
      </trkpt>
      <trkpt lat="48.37563" lon="2.79515">
        <ele>85.21</ele>
        <time>2018-12-13T13:12:43Z</time>
      </trkpt>
      <trkpt lat="48.3758" lon="2.79494">
        <ele>84.73</ele>
        <time>2018-12-13T13:13:03Z</time>
      </trkpt>
      <trkpt lat="48.37594" lon="2.79475">
        <ele>84.25</ele>
        <time>2018-12-13T13:13:23Z</time>
      </trkpt>
      <trkpt lat="48.37612" lon="2.79443">
        <ele>84.25</ele>
        <time>2018-12-13T13:13:47Z</time>
      </trkpt>
      <trkpt lat="48.37615" lon="2.79439">
        <ele>83.77</ele>
        <time>2018-12-13T13:13:50Z</time>
      </trkpt>
      <trkpt lat="48.37625" lon="2.79454">
        <ele>82.81</ele>
        <time>2018-12-13T13:14:11Z</time>
      </trkpt>
      <trkpt lat="48.37642" lon="2.79443">
        <ele>82.81</ele>
        <time>2018-12-13T13:14:31Z</time>
      </trkpt>
      <trkpt lat="48.37652" lon="2.79419">
        <ele>81.85</ele>
        <time>2018-12-13T13:14:51Z</time>
      </trkpt>
      <trkpt lat="48.37668" lon="2.79411">
        <ele>81.37</ele>
        <time>2018-12-13T13:15:14Z</time>
      </trkpt>
      <trkpt lat="48.3769" lon="2.79427">
        <ele>79.93</ele>
        <time>2018-12-13T13:15:36Z</time>
      </trkpt>
      <trkpt lat="48.3771" lon="2.79433">
        <ele>78.97</ele>
        <time>2018-12-13T13:15:55Z</time>
      </trkpt>
      <trkpt lat="48.37715" lon="2.79428">
        <ele>78.97</ele>
        <time>2018-12-13T13:15:59Z</time>
      </trkpt>
      <trkpt lat="48.37723" lon="2.79408">
        <ele>77.04</ele>
        <time>2018-12-13T13:16:14Z</time>
      </trkpt>
      <trkpt lat="48.37721" lon="2.79388">
        <ele>77.04</ele>
        <time>2018-12-13T13:16:28Z</time>
      </trkpt>
      <trkpt lat="48.37721" lon="2.79379">
        <ele>76.56</ele>
        <time>2018-12-13T13:16:35Z</time>
      </trkpt>
      <trkpt lat="48.37733" lon="2.7934">
        <ele>76.56</ele>
        <time>2018-12-13T13:16:55Z</time>
      </trkpt>
      <trkpt lat="48.37729" lon="2.79302">
        <ele>77.04</ele>
        <time>2018-12-13T13:17:12Z</time>
      </trkpt>
      <trkpt lat="48.37725" lon="2.79301">
        <ele>76.56</ele>
        <time>2018-12-13T13:17:13Z</time>
      </trkpt>
      <trkpt lat="48.37699" lon="2.79315">
        <ele>78.48</ele>
        <time>2018-12-13T13:17:35Z</time>
      </trkpt>
      <trkpt lat="48.37691" lon="2.79315">
        <ele>78.97</ele>
        <time>2018-12-13T13:17:56Z</time>
      </trkpt>
      <trkpt lat="48.37678" lon="2.79292">
        <ele>79.45</ele>
        <time>2018-12-13T13:18:16Z</time>
      </trkpt>
      <trkpt lat="48.37667" lon="2.79272">
        <ele>79.45</ele>
        <time>2018-12-13T13:18:34Z</time>
      </trkpt>
      <trkpt lat="48.37655" lon="2.79243">
        <ele>78.97</ele>
        <time>2018-12-13T13:18:54Z</time>
      </trkpt>
      <trkpt lat="48.3764" lon="2.79217">
        <ele>78</ele>
        <time>2018-12-13T13:19:14Z</time>
      </trkpt>
      <trkpt lat="48.37628" lon="2.79198">
        <ele>78.48</ele>
        <time>2018-12-13T13:19:31Z</time>
      </trkpt>
      <trkpt lat="48.37615" lon="2.79179">
        <ele>78.48</ele>
        <time>2018-12-13T13:19:49Z</time>
      </trkpt>
      <trkpt lat="48.37602" lon="2.79156">
        <ele>78.48</ele>
        <time>2018-12-13T13:20:08Z</time>
      </trkpt>
      <trkpt lat="48.3759" lon="2.79138">
        <ele>79.45</ele>
        <time>2018-12-13T13:20:24Z</time>
      </trkpt>
      <trkpt lat="48.37579" lon="2.79115">
        <ele>79.45</ele>
        <time>2018-12-13T13:20:41Z</time>
      </trkpt>
      <trkpt lat="48.37572" lon="2.79108">
        <ele>79.45</ele>
        <time>2018-12-13T13:20:51Z</time>
      </trkpt>
      <trkpt lat="48.3757" lon="2.7911">
        <ele>78.97</ele>
        <time>2018-12-13T13:20:53Z</time>
      </trkpt>
      <trkpt lat="48.37554" lon="2.79117">
        <ele>79.45</ele>
        <time>2018-12-13T13:21:10Z</time>
      </trkpt>
      <trkpt lat="48.3755" lon="2.79094">
        <ele>80.41</ele>
        <time>2018-12-13T13:21:28Z</time>
      </trkpt>
      <trkpt lat="48.37554" lon="2.79088">
        <ele>79.93</ele>
        <time>2018-12-13T13:21:34Z</time>
      </trkpt>
      <trkpt lat="48.37571" lon="2.79065">
        <ele>80.89</ele>
        <time>2018-12-13T13:21:54Z</time>
      </trkpt>
      <trkpt lat="48.37586" lon="2.79049">
        <ele>79.45</ele>
        <time>2018-12-13T13:22:12Z</time>
      </trkpt>
      <trkpt lat="48.37602" lon="2.79027">
        <ele>78.48</ele>
        <time>2018-12-13T13:22:33Z</time>
      </trkpt>
      <trkpt lat="48.37614" lon="2.79004">
        <ele>77.52</ele>
        <time>2018-12-13T13:22:50Z</time>
      </trkpt>
      <trkpt lat="48.37629" lon="2.78982">
        <ele>76.08</ele>
        <time>2018-12-13T13:23:10Z</time>
      </trkpt>
      <trkpt lat="48.37635" lon="2.78976">
        <ele>76.56</ele>
        <time>2018-12-13T13:23:16Z</time>
      </trkpt>
      <trkpt lat="48.37651" lon="2.78956">
        <ele>76.08</ele>
        <time>2018-12-13T13:23:35Z</time>
      </trkpt>
      <trkpt lat="48.37669" lon="2.78935">
        <ele>75.12</ele>
        <time>2018-12-13T13:23:56Z</time>
      </trkpt>
      <trkpt lat="48.37683" lon="2.7892">
        <ele>74.16</ele>
        <time>2018-12-13T13:24:13Z</time>
      </trkpt>
      <trkpt lat="48.37693" lon="2.78902">
        <ele>74.16</ele>
        <time>2018-12-13T13:24:31Z</time>
      </trkpt>
      <trkpt lat="48.37692" lon="2.78887">
        <ele>73.68</ele>
        <time>2018-12-13T13:24:46Z</time>
      </trkpt>
      <trkpt lat="48.3769" lon="2.78866">
        <ele>74.16</ele>
        <time>2018-12-13T13:25:04Z</time>
      </trkpt>
      <trkpt lat="48.37695" lon="2.78842">
        <ele>74.64</ele>
        <time>2018-12-13T13:25:21Z</time>
      </trkpt>
      <trkpt lat="48.37699" lon="2.78816">
        <ele>74.64</ele>
        <time>2018-12-13T13:25:37Z</time>
      </trkpt>
      <trkpt lat="48.37699" lon="2.78785">
        <ele>74.64</ele>
        <time>2018-12-13T13:25:56Z</time>
      </trkpt>
      <trkpt lat="48.37703" lon="2.78758">
        <ele>74.64</ele>
        <time>2018-12-13T13:26:14Z</time>
      </trkpt>
      <trkpt lat="48.37705" lon="2.7872">
        <ele>74.64</ele>
        <time>2018-12-13T13:26:36Z</time>
      </trkpt>
      <trkpt lat="48.37705" lon="2.78718">
        <ele>74.16</ele>
        <time>2018-12-13T13:26:37Z</time>
      </trkpt>
      <trkpt lat="48.37715" lon="2.78693">
        <ele>74.64</ele>
        <time>2018-12-13T13:26:57Z</time>
      </trkpt>
      <trkpt lat="48.37719" lon="2.78663">
        <ele>74.64</ele>
        <time>2018-12-13T13:27:17Z</time>
      </trkpt>
      <trkpt lat="48.37722" lon="2.78636">
        <ele>74.64</ele>
        <time>2018-12-13T13:27:35Z</time>
      </trkpt>
      <trkpt lat="48.37726" lon="2.78604">
        <ele>74.16</ele>
        <time>2018-12-13T13:27:54Z</time>
      </trkpt>
      <trkpt lat="48.37732" lon="2.78578">
        <ele>74.64</ele>
        <time>2018-12-13T13:28:12Z</time>
      </trkpt>
      <trkpt lat="48.37735" lon="2.7857">
        <ele>74.64</ele>
        <time>2018-12-13T13:28:18Z</time>
      </trkpt>
      <trkpt lat="48.37753" lon="2.78546">
        <ele>73.68</ele>
        <time>2018-12-13T13:28:40Z</time>
      </trkpt>
      <trkpt lat="48.37768" lon="2.78529">
        <ele>73.2</ele>
        <time>2018-12-13T13:28:58Z</time>
      </trkpt>
      <trkpt lat="48.37776" lon="2.78512">
        <ele>73.68</ele>
        <time>2018-12-13T13:29:10Z</time>
      </trkpt>
      <trkpt lat="48.37775" lon="2.78484">
        <ele>73.68</ele>
        <time>2018-12-13T13:29:26Z</time>
      </trkpt>
      <trkpt lat="48.37777" lon="2.78458">
        <ele>73.68</ele>
        <time>2018-12-13T13:29:42Z</time>
      </trkpt>
      <trkpt lat="48.37778" lon="2.78433">
        <ele>73.68</ele>
        <time>2018-12-13T13:29:56Z</time>
      </trkpt>
      <trkpt lat="48.3778" lon="2.78404">
        <ele>74.16</ele>
        <time>2018-12-13T13:30:13Z</time>
      </trkpt>
      <trkpt lat="48.37782" lon="2.78381">
        <ele>74.64</ele>
        <time>2018-12-13T13:30:28Z</time>
      </trkpt>
      <trkpt lat="48.3778" lon="2.7837">
        <ele>75.12</ele>
        <time>2018-12-13T13:30:45Z</time>
      </trkpt>
      <trkpt lat="48.37795" lon="2.78372">
        <ele>75.12</ele>
        <time>2018-12-13T13:31:05Z</time>
      </trkpt>
      <trkpt lat="48.37799" lon="2.78347">
        <ele>74.64</ele>
        <time>2018-12-13T13:31:23Z</time>
      </trkpt>
      <trkpt lat="48.37798" lon="2.78322">
        <ele>75.6</ele>
        <time>2018-12-13T13:31:40Z</time>
      </trkpt>
      <trkpt lat="48.37802" lon="2.78295">
        <ele>75.12</ele>
        <time>2018-12-13T13:31:58Z</time>
      </trkpt>
      <trkpt lat="48.37807" lon="2.78277">
        <ele>75.6</ele>
        <time>2018-12-13T13:32:09Z</time>
      </trkpt>
      <trkpt lat="48.37809" lon="2.78252">
        <ele>76.08</ele>
        <time>2018-12-13T13:32:24Z</time>
      </trkpt>
      <trkpt lat="48.37815" lon="2.78223">
        <ele>77.04</ele>
        <time>2018-12-13T13:32:41Z</time>
      </trkpt>
      <trkpt lat="48.37823" lon="2.78201">
        <ele>77.04</ele>
        <time>2018-12-13T13:32:55Z</time>
      </trkpt>
      <trkpt lat="48.37834" lon="2.78184">
        <ele>77.52</ele>
        <time>2018-12-13T13:33:12Z</time>
      </trkpt>
      <trkpt lat="48.37841" lon="2.78179">
        <ele>77.52</ele>
        <time>2018-12-13T13:33:25Z</time>
      </trkpt>
      <trkpt lat="48.37857" lon="2.78163">
        <ele>78</ele>
        <time>2018-12-13T13:33:44Z</time>
      </trkpt>
      <trkpt lat="48.37858" lon="2.78147">
        <ele>78.48</ele>
        <time>2018-12-13T13:33:58Z</time>
      </trkpt>
      <trkpt lat="48.37876" lon="2.78135">
        <ele>78.48</ele>
        <time>2018-12-13T13:34:18Z</time>
      </trkpt>
      <trkpt lat="48.37896" lon="2.7812">
        <ele>79.45</ele>
        <time>2018-12-13T13:34:36Z</time>
      </trkpt>
      <trkpt lat="48.37909" lon="2.78113">
        <ele>79.45</ele>
        <time>2018-12-13T13:34:52Z</time>
      </trkpt>
      <trkpt lat="48.37924" lon="2.78093">
        <ele>80.41</ele>
        <time>2018-12-13T13:35:10Z</time>
      </trkpt>
      <trkpt lat="48.37942" lon="2.7808">
        <ele>80.41</ele>
        <time>2018-12-13T13:35:26Z</time>
      </trkpt>
      <trkpt lat="48.37951" lon="2.78068">
        <ele>80.89</ele>
        <time>2018-12-13T13:35:40Z</time>
      </trkpt>
      <trkpt lat="48.37966" lon="2.78056">
        <ele>81.85</ele>
        <time>2018-12-13T13:35:56Z</time>
      </trkpt>
      <trkpt lat="48.37979" lon="2.78041">
        <ele>82.33</ele>
        <time>2018-12-13T13:36:14Z</time>
      </trkpt>
      <trkpt lat="48.37993" lon="2.78031">
        <ele>81.85</ele>
        <time>2018-12-13T13:36:29Z</time>
      </trkpt>
      <trkpt lat="48.38005" lon="2.78017">
        <ele>83.29</ele>
        <time>2018-12-13T13:36:45Z</time>
      </trkpt>
      <trkpt lat="48.3802" lon="2.78005">
        <ele>83.29</ele>
        <time>2018-12-13T13:36:59Z</time>
      </trkpt>
      <trkpt lat="48.38037" lon="2.77993">
        <ele>83.77</ele>
        <time>2018-12-13T13:37:14Z</time>
      </trkpt>
      <trkpt lat="48.38056" lon="2.77978">
        <ele>83.77</ele>
        <time>2018-12-13T13:37:33Z</time>
      </trkpt>
      <trkpt lat="48.38071" lon="2.77964">
        <ele>84.73</ele>
        <time>2018-12-13T13:37:49Z</time>
      </trkpt>
      <trkpt lat="48.3808" lon="2.77953">
        <ele>84.25</ele>
        <time>2018-12-13T13:38:03Z</time>
      </trkpt>
      <trkpt lat="48.38094" lon="2.77942">
        <ele>84.73</ele>
        <time>2018-12-13T13:38:18Z</time>
      </trkpt>
      <trkpt lat="48.3812" lon="2.77926">
        <ele>85.21</ele>
        <time>2018-12-13T13:38:34Z</time>
      </trkpt>
      <trkpt lat="48.38134" lon="2.77911">
        <ele>85.69</ele>
        <time>2018-12-13T13:38:49Z</time>
      </trkpt>
      <trkpt lat="48.38142" lon="2.77903">
        <ele>86.18</ele>
        <time>2018-12-13T13:39:02Z</time>
      </trkpt>
      <trkpt lat="48.38156" lon="2.77891">
        <ele>86.18</ele>
        <time>2018-12-13T13:39:18Z</time>
      </trkpt>
      <trkpt lat="48.38176" lon="2.77886">
        <ele>86.18</ele>
        <time>2018-12-13T13:39:34Z</time>
      </trkpt>
      <trkpt lat="48.38191" lon="2.77873">
        <ele>86.18</ele>
        <time>2018-12-13T13:39:51Z</time>
      </trkpt>
      <trkpt lat="48.38205" lon="2.77867">
        <ele>86.18</ele>
        <time>2018-12-13T13:40:06Z</time>
      </trkpt>
      <trkpt lat="48.38224" lon="2.7786">
        <ele>86.66</ele>
        <time>2018-12-13T13:40:21Z</time>
      </trkpt>
      <trkpt lat="48.38239" lon="2.77851">
        <ele>86.18</ele>
        <time>2018-12-13T13:40:35Z</time>
      </trkpt>
      <trkpt lat="48.38255" lon="2.77846">
        <ele>86.66</ele>
        <time>2018-12-13T13:40:49Z</time>
      </trkpt>
      <trkpt lat="48.38269" lon="2.77839">
        <ele>87.14</ele>
        <time>2018-12-13T13:41:03Z</time>
      </trkpt>
      <trkpt lat="48.38285" lon="2.7783">
        <ele>86.18</ele>
        <time>2018-12-13T13:41:16Z</time>
      </trkpt>
      <trkpt lat="48.38291" lon="2.77816">
        <ele>87.62</ele>
        <time>2018-12-13T13:41:29Z</time>
      </trkpt>
      <trkpt lat="48.38291" lon="2.77815">
        <ele>87.62</ele>
        <time>2018-12-13T13:41:30Z</time>
      </trkpt>
      <trkpt lat="48.383" lon="2.778">
        <ele>87.14</ele>
        <time>2018-12-13T13:41:44Z</time>
      </trkpt>
      <trkpt lat="48.38311" lon="2.77776">
        <ele>87.62</ele>
        <time>2018-12-13T13:42:00Z</time>
      </trkpt>
      <trkpt lat="48.3832" lon="2.7776">
        <ele>87.62</ele>
        <time>2018-12-13T13:42:16Z</time>
      </trkpt>
      <trkpt lat="48.3833" lon="2.77738">
        <ele>88.1</ele>
        <time>2018-12-13T13:42:32Z</time>
      </trkpt>
      <trkpt lat="48.38342" lon="2.77722">
        <ele>88.1</ele>
        <time>2018-12-13T13:42:48Z</time>
      </trkpt>
      <trkpt lat="48.38351" lon="2.77706">
        <ele>88.58</ele>
        <time>2018-12-13T13:43:02Z</time>
      </trkpt>
      <trkpt lat="48.38357" lon="2.77689">
        <ele>88.58</ele>
        <time>2018-12-13T13:43:17Z</time>
      </trkpt>
      <trkpt lat="48.38372" lon="2.77665">
        <ele>88.58</ele>
        <time>2018-12-13T13:43:34Z</time>
      </trkpt>
      <trkpt lat="48.38382" lon="2.77653">
        <ele>88.58</ele>
        <time>2018-12-13T13:43:52Z</time>
      </trkpt>
      <trkpt lat="48.38387" lon="2.77642">
        <ele>89.06</ele>
        <time>2018-12-13T13:44:51Z</time>
      </trkpt>
      <trkpt lat="48.38411" lon="2.776">
        <ele>89.06</ele>
        <time>2018-12-13T13:45:47Z</time>
      </trkpt>
      <trkpt lat="48.38424" lon="2.77577">
        <ele>89.54</ele>
        <time>2018-12-13T13:46:03Z</time>
      </trkpt>
      <trkpt lat="48.38427" lon="2.77574">
        <ele>89.06</ele>
        <time>2018-12-13T13:46:06Z</time>
      </trkpt>
      <trkpt lat="48.38431" lon="2.7757">
        <ele>89.54</ele>
        <time>2018-12-13T13:46:11Z</time>
      </trkpt>
      <trkpt lat="48.3844" lon="2.7755">
        <ele>89.54</ele>
        <time>2018-12-13T13:46:26Z</time>
      </trkpt>
      <trkpt lat="48.3849" lon="2.77461">
        <ele>89.54</ele>
        <time>2018-12-13T13:47:39Z</time>
      </trkpt>
      <trkpt lat="48.38491" lon="2.77457">
        <ele>90.02</ele>
        <time>2018-12-13T13:47:43Z</time>
      </trkpt>
      <trkpt lat="48.38494" lon="2.77447">
        <ele>89.54</ele>
        <time>2018-12-13T13:47:50Z</time>
      </trkpt>
      <trkpt lat="48.38524" lon="2.77398">
        <ele>90.02</ele>
        <time>2018-12-13T13:49:01Z</time>
      </trkpt>
      <trkpt lat="48.3853" lon="2.77385">
        <ele>89.54</ele>
        <time>2018-12-13T13:49:16Z</time>
      </trkpt>
      <trkpt lat="48.3854" lon="2.77366">
        <ele>90.02</ele>
        <time>2018-12-13T13:49:32Z</time>
      </trkpt>
      <trkpt lat="48.38546" lon="2.77351">
        <ele>90.5</ele>
        <time>2018-12-13T13:49:45Z</time>
      </trkpt>
      <trkpt lat="48.38628" lon="2.772">
        <ele>90.02</ele>
        <time>2018-12-13T13:52:04Z</time>
      </trkpt>
      <trkpt lat="48.38649" lon="2.77165">
        <ele>90.02</ele>
        <time>2018-12-13T13:52:34Z</time>
      </trkpt>
      <trkpt lat="48.38656" lon="2.77147">
        <ele>90.5</ele>
        <time>2018-12-13T13:52:47Z</time>
      </trkpt>
      <trkpt lat="48.38666" lon="2.7713">
        <ele>90.02</ele>
        <time>2018-12-13T13:53:01Z</time>
      </trkpt>
      <trkpt lat="48.38681" lon="2.77107">
        <ele>89.54</ele>
        <time>2018-12-13T13:53:17Z</time>
      </trkpt>
      <trkpt lat="48.38691" lon="2.7709">
        <ele>89.54</ele>
        <time>2018-12-13T13:53:32Z</time>
      </trkpt>
      <trkpt lat="48.38696" lon="2.77075">
        <ele>89.54</ele>
        <time>2018-12-13T13:53:44Z</time>
      </trkpt>
      <trkpt lat="48.38707" lon="2.77058">
        <ele>89.54</ele>
        <time>2018-12-13T13:53:58Z</time>
      </trkpt>
      <trkpt lat="48.38713" lon="2.77043">
        <ele>89.54</ele>
        <time>2018-12-13T13:54:13Z</time>
      </trkpt>
      <trkpt lat="48.38726" lon="2.77023">
        <ele>89.54</ele>
        <time>2018-12-13T13:54:30Z</time>
      </trkpt>
      <trkpt lat="48.38879" lon="2.76754">
        <ele>88.58</ele>
        <time>2018-12-13T13:58:10Z</time>
      </trkpt>
      <trkpt lat="48.38889" lon="2.76735">
        <ele>89.06</ele>
        <time>2018-12-13T13:58:25Z</time>
      </trkpt>
      <trkpt lat="48.389" lon="2.76717">
        <ele>88.58</ele>
        <time>2018-12-13T13:58:41Z</time>
      </trkpt>
      <trkpt lat="48.38911" lon="2.76699">
        <ele>88.1</ele>
        <time>2018-12-13T13:58:56Z</time>
      </trkpt>
      <trkpt lat="48.38924" lon="2.7667">
        <ele>88.58</ele>
        <time>2018-12-13T13:59:18Z</time>
      </trkpt>
      <trkpt lat="48.38937" lon="2.76643">
        <ele>88.58</ele>
        <time>2018-12-13T13:59:38Z</time>
      </trkpt>
      <trkpt lat="48.3895" lon="2.76616">
        <ele>88.58</ele>
        <time>2018-12-13T14:00:00Z</time>
      </trkpt>
      <trkpt lat="48.38963" lon="2.76594">
        <ele>87.62</ele>
        <time>2018-12-13T14:00:19Z</time>
      </trkpt>
      <trkpt lat="48.38977" lon="2.76569">
        <ele>87.62</ele>
        <time>2018-12-13T14:00:38Z</time>
      </trkpt>
      <trkpt lat="48.39015" lon="2.765">
        <ele>86.66</ele>
        <time>2018-12-13T14:01:32Z</time>
      </trkpt>
      <trkpt lat="48.39064" lon="2.76413">
        <ele>88.58</ele>
        <time>2018-12-13T14:13:37Z</time>
      </trkpt>
      <trkpt lat="48.39067" lon="2.76465">
        <ele>88.58</ele>
        <time>2018-12-13T14:14:07Z</time>
      </trkpt>
      <trkpt lat="48.3907" lon="2.76523">
        <ele>89.06</ele>
        <time>2018-12-13T14:14:38Z</time>
      </trkpt>
      <trkpt lat="48.3907" lon="2.76548">
        <ele>89.06</ele>
        <time>2018-12-13T14:14:55Z</time>
      </trkpt>
      <trkpt lat="48.3907" lon="2.76574">
        <ele>89.06</ele>
        <time>2018-12-13T14:15:14Z</time>
      </trkpt>
      <trkpt lat="48.39072" lon="2.76602">
        <ele>89.06</ele>
        <time>2018-12-13T14:15:33Z</time>
      </trkpt>
      <trkpt lat="48.39074" lon="2.7663">
        <ele>89.06</ele>
        <time>2018-12-13T14:15:51Z</time>
      </trkpt>
      <trkpt lat="48.39075" lon="2.76657">
        <ele>89.06</ele>
        <time>2018-12-13T14:16:09Z</time>
      </trkpt>
      <trkpt lat="48.39076" lon="2.76683">
        <ele>90.02</ele>
        <time>2018-12-13T14:16:27Z</time>
      </trkpt>
      <trkpt lat="48.39076" lon="2.76705">
        <ele>89.06</ele>
        <time>2018-12-13T14:16:43Z</time>
      </trkpt>
      <trkpt lat="48.39077" lon="2.76729">
        <ele>89.54</ele>
        <time>2018-12-13T14:16:58Z</time>
      </trkpt>
      <trkpt lat="48.39079" lon="2.76752">
        <ele>88.58</ele>
        <time>2018-12-13T14:17:13Z</time>
      </trkpt>
      <trkpt lat="48.39079" lon="2.76776">
        <ele>89.06</ele>
        <time>2018-12-13T14:17:27Z</time>
      </trkpt>
      <trkpt lat="48.3908" lon="2.76803">
        <ele>89.06</ele>
        <time>2018-12-13T14:17:45Z</time>
      </trkpt>
      <trkpt lat="48.3908" lon="2.76832">
        <ele>89.06</ele>
        <time>2018-12-13T14:18:04Z</time>
      </trkpt>
      <trkpt lat="48.39081" lon="2.76856">
        <ele>89.06</ele>
        <time>2018-12-13T14:18:20Z</time>
      </trkpt>
      <trkpt lat="48.39082" lon="2.76882">
        <ele>89.06</ele>
        <time>2018-12-13T14:18:36Z</time>
      </trkpt>
      <trkpt lat="48.39081" lon="2.76913">
        <ele>88.58</ele>
        <time>2018-12-13T14:18:55Z</time>
      </trkpt>
      <trkpt lat="48.39082" lon="2.7694">
        <ele>89.06</ele>
        <time>2018-12-13T14:19:13Z</time>
      </trkpt>
      <trkpt lat="48.39084" lon="2.76964">
        <ele>89.06</ele>
        <time>2018-12-13T14:19:29Z</time>
      </trkpt>
      <trkpt lat="48.39085" lon="2.76988">
        <ele>89.06</ele>
        <time>2018-12-13T14:19:45Z</time>
      </trkpt>
      <trkpt lat="48.39086" lon="2.77012">
        <ele>89.54</ele>
        <time>2018-12-13T14:20:01Z</time>
      </trkpt>
      <trkpt lat="48.39087" lon="2.7704">
        <ele>88.58</ele>
        <time>2018-12-13T14:20:21Z</time>
      </trkpt>
      <trkpt lat="48.39088" lon="2.7706">
        <ele>88.58</ele>
        <time>2018-12-13T14:20:36Z</time>
      </trkpt>
      <trkpt lat="48.39089" lon="2.77087">
        <ele>89.06</ele>
        <time>2018-12-13T14:20:54Z</time>
      </trkpt>
      <trkpt lat="48.39088" lon="2.77111">
        <ele>89.06</ele>
        <time>2018-12-13T14:21:11Z</time>
      </trkpt>
      <trkpt lat="48.39088" lon="2.77137">
        <ele>89.06</ele>
        <time>2018-12-13T14:21:28Z</time>
      </trkpt>
      <trkpt lat="48.3909" lon="2.77158">
        <ele>89.06</ele>
        <time>2018-12-13T14:21:43Z</time>
      </trkpt>
      <trkpt lat="48.39091" lon="2.77203">
        <ele>89.06</ele>
        <time>2018-12-13T14:22:15Z</time>
      </trkpt>
      <trkpt lat="48.3909" lon="2.77236">
        <ele>89.06</ele>
        <time>2018-12-13T14:22:35Z</time>
      </trkpt>
      <trkpt lat="48.39091" lon="2.77267">
        <ele>88.58</ele>
        <time>2018-12-13T14:22:56Z</time>
      </trkpt>
      <trkpt lat="48.39092" lon="2.77289">
        <ele>89.06</ele>
        <time>2018-12-13T14:23:14Z</time>
      </trkpt>
      <trkpt lat="48.3909" lon="2.77353">
        <ele>89.54</ele>
        <time>2018-12-13T14:24:35Z</time>
      </trkpt>
      <trkpt lat="48.39086" lon="2.774">
        <ele>89.06</ele>
        <time>2018-12-13T14:25:15Z</time>
      </trkpt>
      <trkpt lat="48.39083" lon="2.77432">
        <ele>88.1</ele>
        <time>2018-12-13T14:25:36Z</time>
      </trkpt>
      <trkpt lat="48.3908" lon="2.77463">
        <ele>88.1</ele>
        <time>2018-12-13T14:25:55Z</time>
      </trkpt>
      <trkpt lat="48.39076" lon="2.77488">
        <ele>87.62</ele>
        <time>2018-12-13T14:26:14Z</time>
      </trkpt>
      <trkpt lat="48.39059" lon="2.77677">
        <ele>85.69</ele>
        <time>2018-12-13T14:28:14Z</time>
      </trkpt>
      <trkpt lat="48.39055" lon="2.77702">
        <ele>85.69</ele>
        <time>2018-12-13T14:28:35Z</time>
      </trkpt>
      <trkpt lat="48.39045" lon="2.77817">
        <ele>85.21</ele>
        <time>2018-12-13T14:29:57Z</time>
      </trkpt>
      <trkpt lat="48.39044" lon="2.77845">
        <ele>84.25</ele>
        <time>2018-12-13T14:30:15Z</time>
      </trkpt>
      <trkpt lat="48.39041" lon="2.77864">
        <ele>84.73</ele>
        <time>2018-12-13T14:30:31Z</time>
      </trkpt>
      <trkpt lat="48.39036" lon="2.77888">
        <ele>85.21</ele>
        <time>2018-12-13T14:30:49Z</time>
      </trkpt>
      <trkpt lat="48.39034" lon="2.77914">
        <ele>85.69</ele>
        <time>2018-12-13T14:31:07Z</time>
      </trkpt>
      <trkpt lat="48.3903" lon="2.7794">
        <ele>85.21</ele>
        <time>2018-12-13T14:31:27Z</time>
      </trkpt>
      <trkpt lat="48.39028" lon="2.77971">
        <ele>85.69</ele>
        <time>2018-12-13T14:31:49Z</time>
      </trkpt>
      <trkpt lat="48.39027" lon="2.77996">
        <ele>85.21</ele>
        <time>2018-12-13T14:32:10Z</time>
      </trkpt>
      <trkpt lat="48.39005" lon="2.78021">
        <ele>86.18</ele>
        <time>2018-12-13T14:32:29Z</time>
      </trkpt>
      <trkpt lat="48.3899" lon="2.78043">
        <ele>86.18</ele>
        <time>2018-12-13T14:32:49Z</time>
      </trkpt>
      <trkpt lat="48.3898" lon="2.78059">
        <ele>86.66</ele>
        <time>2018-12-13T14:33:05Z</time>
      </trkpt>
      <trkpt lat="48.3898" lon="2.78059">
        <ele>86.66</ele>
        <time>2018-12-13T14:33:06Z</time>
      </trkpt>
      <trkpt lat="48.38963" lon="2.78079">
        <ele>86.66</ele>
        <time>2018-12-13T14:33:28Z</time>
      </trkpt>
      <trkpt lat="48.38948" lon="2.78101">
        <ele>86.18</ele>
        <time>2018-12-13T14:33:49Z</time>
      </trkpt>
      <trkpt lat="48.38933" lon="2.78122">
        <ele>87.14</ele>
        <time>2018-12-13T14:34:09Z</time>
      </trkpt>
      <trkpt lat="48.38916" lon="2.78144">
        <ele>87.14</ele>
        <time>2018-12-13T14:34:29Z</time>
      </trkpt>
      <trkpt lat="48.38904" lon="2.78162">
        <ele>87.14</ele>
        <time>2018-12-13T14:34:46Z</time>
      </trkpt>
      <trkpt lat="48.38889" lon="2.78183">
        <ele>87.14</ele>
        <time>2018-12-13T14:35:06Z</time>
      </trkpt>
      <trkpt lat="48.38878" lon="2.78201">
        <ele>87.14</ele>
        <time>2018-12-13T14:35:24Z</time>
      </trkpt>
      <trkpt lat="48.38866" lon="2.78221">
        <ele>87.62</ele>
        <time>2018-12-13T14:35:41Z</time>
      </trkpt>
      <trkpt lat="48.38851" lon="2.78243">
        <ele>87.14</ele>
        <time>2018-12-13T14:35:59Z</time>
      </trkpt>
      <trkpt lat="48.38836" lon="2.78269">
        <ele>87.62</ele>
        <time>2018-12-13T14:36:16Z</time>
      </trkpt>
      <trkpt lat="48.38831" lon="2.78278">
        <ele>87.62</ele>
        <time>2018-12-13T14:36:24Z</time>
      </trkpt>
      <trkpt lat="48.38819" lon="2.78296">
        <ele>87.62</ele>
        <time>2018-12-13T14:36:39Z</time>
      </trkpt>
      <trkpt lat="48.38804" lon="2.78318">
        <ele>88.1</ele>
        <time>2018-12-13T14:36:57Z</time>
      </trkpt>
      <trkpt lat="48.38793" lon="2.78335">
        <ele>87.14</ele>
        <time>2018-12-13T14:37:10Z</time>
      </trkpt>
      <trkpt lat="48.38791" lon="2.7834">
        <ele>87.14</ele>
        <time>2018-12-13T14:37:13Z</time>
      </trkpt>
      <trkpt lat="48.38776" lon="2.78362">
        <ele>87.62</ele>
        <time>2018-12-13T14:37:30Z</time>
      </trkpt>
      <trkpt lat="48.38763" lon="2.78381">
        <ele>86.66</ele>
        <time>2018-12-13T14:37:43Z</time>
      </trkpt>
      <trkpt lat="48.38749" lon="2.78401">
        <ele>87.14</ele>
        <time>2018-12-13T14:37:59Z</time>
      </trkpt>
      <trkpt lat="48.38731" lon="2.78427">
        <ele>86.18</ele>
        <time>2018-12-13T14:38:18Z</time>
      </trkpt>
      <trkpt lat="48.38718" lon="2.78443">
        <ele>86.18</ele>
        <time>2018-12-13T14:38:32Z</time>
      </trkpt>
      <trkpt lat="48.38704" lon="2.78457">
        <ele>86.18</ele>
        <time>2018-12-13T14:38:47Z</time>
      </trkpt>
      <trkpt lat="48.38687" lon="2.78477">
        <ele>85.69</ele>
        <time>2018-12-13T14:39:06Z</time>
      </trkpt>
      <trkpt lat="48.38669" lon="2.78496">
        <ele>85.21</ele>
        <time>2018-12-13T14:39:23Z</time>
      </trkpt>
      <trkpt lat="48.38657" lon="2.78511">
        <ele>85.21</ele>
        <time>2018-12-13T14:39:38Z</time>
      </trkpt>
      <trkpt lat="48.38639" lon="2.78527">
        <ele>84.73</ele>
        <time>2018-12-13T14:39:54Z</time>
      </trkpt>
      <trkpt lat="48.38622" lon="2.78547">
        <ele>84.25</ele>
        <time>2018-12-13T14:40:13Z</time>
      </trkpt>
      <trkpt lat="48.38609" lon="2.78563">
        <ele>84.73</ele>
        <time>2018-12-13T14:40:29Z</time>
      </trkpt>
      <trkpt lat="48.38594" lon="2.78579">
        <ele>83.29</ele>
        <time>2018-12-13T14:40:46Z</time>
      </trkpt>
      <trkpt lat="48.38596" lon="2.78583">
        <ele>83.29</ele>
        <time>2018-12-13T14:41:38Z</time>
      </trkpt>
      <trkpt lat="48.38603" lon="2.78602">
        <ele>83.29</ele>
        <time>2018-12-13T14:41:53Z</time>
      </trkpt>
      <trkpt lat="48.38602" lon="2.78619">
        <ele>82.81</ele>
        <time>2018-12-13T14:42:07Z</time>
      </trkpt>
      <trkpt lat="48.38593" lon="2.7863">
        <ele>82.81</ele>
        <time>2018-12-13T14:42:23Z</time>
      </trkpt>
      <trkpt lat="48.38602" lon="2.78656">
        <ele>82.33</ele>
        <time>2018-12-13T14:42:43Z</time>
      </trkpt>
      <trkpt lat="48.3861" lon="2.78676">
        <ele>81.37</ele>
        <time>2018-12-13T14:42:59Z</time>
      </trkpt>
      <trkpt lat="48.38609" lon="2.78689">
        <ele>81.37</ele>
        <time>2018-12-13T14:43:12Z</time>
      </trkpt>
      <trkpt lat="48.38595" lon="2.787">
        <ele>80.41</ele>
        <time>2018-12-13T14:43:30Z</time>
      </trkpt>
      <trkpt lat="48.38577" lon="2.7871">
        <ele>79.45</ele>
        <time>2018-12-13T14:43:46Z</time>
      </trkpt>
      <trkpt lat="48.38578" lon="2.78726">
        <ele>78.97</ele>
        <time>2018-12-13T14:43:56Z</time>
      </trkpt>
      <trkpt lat="48.38579" lon="2.78743">
        <ele>78.97</ele>
        <time>2018-12-13T14:44:02Z</time>
      </trkpt>
      <trkpt lat="48.38586" lon="2.78755">
        <ele>78.97</ele>
        <time>2018-12-13T14:44:10Z</time>
      </trkpt>
      <trkpt lat="48.38592" lon="2.78774">
        <ele>77.52</ele>
        <time>2018-12-13T14:44:22Z</time>
      </trkpt>
      <trkpt lat="48.386" lon="2.78804">
        <ele>77.52</ele>
        <time>2018-12-13T14:44:39Z</time>
      </trkpt>
      <trkpt lat="48.38606" lon="2.78825">
        <ele>76.56</ele>
        <time>2018-12-13T14:44:54Z</time>
      </trkpt>
      <trkpt lat="48.38611" lon="2.78851">
        <ele>75.12</ele>
        <time>2018-12-13T14:45:10Z</time>
      </trkpt>
      <trkpt lat="48.38609" lon="2.78873">
        <ele>74.16</ele>
        <time>2018-12-13T14:45:25Z</time>
      </trkpt>
      <trkpt lat="48.38608" lon="2.78873">
        <ele>74.16</ele>
        <time>2018-12-13T14:45:26Z</time>
      </trkpt>
      <trkpt lat="48.38597" lon="2.78884">
        <ele>73.68</ele>
        <time>2018-12-13T14:45:41Z</time>
      </trkpt>
      <trkpt lat="48.38583" lon="2.78898">
        <ele>73.68</ele>
        <time>2018-12-13T14:45:57Z</time>
      </trkpt>
      <trkpt lat="48.38566" lon="2.78909">
        <ele>72.72</ele>
        <time>2018-12-13T14:46:15Z</time>
      </trkpt>
      <trkpt lat="48.38555" lon="2.78919">
        <ele>72.72</ele>
        <time>2018-12-13T14:46:29Z</time>
      </trkpt>
      <trkpt lat="48.38543" lon="2.78929">
        <ele>72.72</ele>
        <time>2018-12-13T14:46:44Z</time>
      </trkpt>
      <trkpt lat="48.38528" lon="2.78948">
        <ele>71.27</ele>
        <time>2018-12-13T14:46:58Z</time>
      </trkpt>
      <trkpt lat="48.38525" lon="2.78941">
        <ele>71.27</ele>
        <time>2018-12-13T14:46:59Z</time>
      </trkpt>
      <trkpt lat="48.3852" lon="2.78931">
        <ele>71.76</ele>
        <time>2018-12-13T14:47:11Z</time>
      </trkpt>
      <trkpt lat="48.38513" lon="2.78914">
        <ele>72.24</ele>
        <time>2018-12-13T14:47:27Z</time>
      </trkpt>
      <trkpt lat="48.3851" lon="2.78908">
        <ele>72.72</ele>
        <time>2018-12-13T14:47:31Z</time>
      </trkpt>
      <trkpt lat="48.38499" lon="2.78884">
        <ele>74.16</ele>
        <time>2018-12-13T14:47:47Z</time>
      </trkpt>
      <trkpt lat="48.38496" lon="2.78871">
        <ele>74.64</ele>
        <time>2018-12-13T14:48:01Z</time>
      </trkpt>
      <trkpt lat="48.38488" lon="2.78875">
        <ele>74.64</ele>
        <time>2018-12-13T14:48:17Z</time>
      </trkpt>
      <trkpt lat="48.38483" lon="2.78861">
        <ele>74.64</ele>
        <time>2018-12-13T14:48:33Z</time>
      </trkpt>
      <trkpt lat="48.38476" lon="2.78843">
        <ele>75.12</ele>
        <time>2018-12-13T14:48:48Z</time>
      </trkpt>
      <trkpt lat="48.38469" lon="2.78849">
        <ele>75.12</ele>
        <time>2018-12-13T14:49:03Z</time>
      </trkpt>
      <trkpt lat="48.38458" lon="2.78831">
        <ele>75.12</ele>
        <time>2018-12-13T14:49:20Z</time>
      </trkpt>
      <trkpt lat="48.38454" lon="2.78836">
        <ele>74.16</ele>
        <time>2018-12-13T14:49:36Z</time>
      </trkpt>
      <trkpt lat="48.38442" lon="2.78814">
        <ele>73.68</ele>
        <time>2018-12-13T14:49:52Z</time>
      </trkpt>
      <trkpt lat="48.38427" lon="2.78829">
        <ele>73.2</ele>
        <time>2018-12-13T14:49:53Z</time>
      </trkpt>
      <trkpt lat="48.3842" lon="2.78839">
        <ele>73.2</ele>
        <time>2018-12-13T14:50:08Z</time>
      </trkpt>
      <trkpt lat="48.38433" lon="2.78871">
        <ele>73.2</ele>
        <time>2018-12-13T14:50:27Z</time>
      </trkpt>
      <trkpt lat="48.38444" lon="2.78901">
        <ele>73.2</ele>
        <time>2018-12-13T14:50:48Z</time>
      </trkpt>
      <trkpt lat="48.38456" lon="2.78924">
        <ele>71.76</ele>
        <time>2018-12-13T14:51:10Z</time>
      </trkpt>
      <trkpt lat="48.38464" lon="2.78943">
        <ele>71.27</ele>
        <time>2018-12-13T14:51:32Z</time>
      </trkpt>
      <trkpt lat="48.38469" lon="2.78944">
        <ele>70.31</ele>
        <time>2018-12-13T14:51:46Z</time>
      </trkpt>
      <trkpt lat="48.38488" lon="2.78984">
        <ele>70.31</ele>
        <time>2018-12-13T14:52:05Z</time>
      </trkpt>
      <trkpt lat="48.38481" lon="2.79">
        <ele>68.87</ele>
        <time>2018-12-13T14:52:20Z</time>
      </trkpt>
      <trkpt lat="48.38469" lon="2.79006">
        <ele>69.35</ele>
        <time>2018-12-13T14:52:35Z</time>
      </trkpt>
      <trkpt lat="48.38477" lon="2.79043">
        <ele>70.31</ele>
        <time>2018-12-13T14:52:51Z</time>
      </trkpt>
      <trkpt lat="48.38468" lon="2.7907">
        <ele>69.83</ele>
        <time>2018-12-13T14:53:09Z</time>
      </trkpt>
      <trkpt lat="48.38474" lon="2.7906">
        <ele>68.39</ele>
        <time>2018-12-13T14:53:25Z</time>
      </trkpt>
      <trkpt lat="48.38482" lon="2.79047">
        <ele>66.95</ele>
        <time>2018-12-13T14:53:39Z</time>
      </trkpt>
      <trkpt lat="48.38492" lon="2.7905">
        <ele>64.55</ele>
        <time>2018-12-13T14:53:57Z</time>
      </trkpt>
      <trkpt lat="48.38488" lon="2.79058">
        <ele>65.03</ele>
        <time>2018-12-13T14:54:11Z</time>
      </trkpt>
      <trkpt lat="48.38476" lon="2.79075">
        <ele>65.03</ele>
        <time>2018-12-13T14:54:28Z</time>
      </trkpt>
      <trkpt lat="48.38471" lon="2.79078">
        <ele>64.55</ele>
        <time>2018-12-13T14:54:41Z</time>
      </trkpt>
      <trkpt lat="48.38449" lon="2.79095">
        <ele>65.51</ele>
        <time>2018-12-13T14:55:01Z</time>
      </trkpt>
      <trkpt lat="48.38429" lon="2.79106">
        <ele>64.55</ele>
        <time>2018-12-13T14:55:18Z</time>
      </trkpt>
      <trkpt lat="48.3841" lon="2.79117">
        <ele>64.07</ele>
        <time>2018-12-13T14:55:36Z</time>
      </trkpt>
      <trkpt lat="48.3839" lon="2.79125">
        <ele>64.07</ele>
        <time>2018-12-13T14:55:53Z</time>
      </trkpt>
      <trkpt lat="48.38372" lon="2.79136">
        <ele>65.03</ele>
        <time>2018-12-13T14:56:10Z</time>
      </trkpt>
      <trkpt lat="48.38353" lon="2.79146">
        <ele>64.07</ele>
        <time>2018-12-13T14:56:28Z</time>
      </trkpt>
      <trkpt lat="48.38336" lon="2.79157">
        <ele>63.58</ele>
        <time>2018-12-13T14:56:44Z</time>
      </trkpt>
      <trkpt lat="48.38329" lon="2.79172">
        <ele>62.62</ele>
        <time>2018-12-13T14:56:57Z</time>
      </trkpt>
      <trkpt lat="48.3832" lon="2.79197">
        <ele>61.66</ele>
        <time>2018-12-13T14:57:15Z</time>
      </trkpt>
      <trkpt lat="48.38311" lon="2.79228">
        <ele>60.7</ele>
        <time>2018-12-13T14:57:33Z</time>
      </trkpt>
      <trkpt lat="48.38305" lon="2.79255">
        <ele>60.22</ele>
        <time>2018-12-13T14:57:50Z</time>
      </trkpt>
      <trkpt lat="48.38299" lon="2.79282">
        <ele>60.22</ele>
        <time>2018-12-13T14:58:07Z</time>
      </trkpt>
      <trkpt lat="48.38296" lon="2.79285">
        <ele>60.22</ele>
        <time>2018-12-13T14:58:11Z</time>
      </trkpt>
      <trkpt lat="48.38291" lon="2.79304">
        <ele>59.26</ele>
        <time>2018-12-13T14:58:23Z</time>
      </trkpt>
      <trkpt lat="48.38283" lon="2.79335">
        <ele>59.26</ele>
        <time>2018-12-13T14:58:43Z</time>
      </trkpt>
      <trkpt lat="48.38278" lon="2.79363">
        <ele>58.3</ele>
        <time>2018-12-13T14:59:00Z</time>
      </trkpt>
      <trkpt lat="48.38272" lon="2.79386">
        <ele>58.3</ele>
        <time>2018-12-13T14:59:16Z</time>
      </trkpt>
      <trkpt lat="48.38265" lon="2.79413">
        <ele>56.37</ele>
        <time>2018-12-13T14:59:34Z</time>
      </trkpt>
      <trkpt lat="48.38257" lon="2.79434">
        <ele>53.01</ele>
        <time>2018-12-13T14:59:48Z</time>
      </trkpt>
      <trkpt lat="48.38245" lon="2.79463">
        <ele>50.13</ele>
        <time>2018-12-13T15:00:10Z</time>
      </trkpt>
      <trkpt lat="48.38239" lon="2.79482">
        <ele>46.76</ele>
        <time>2018-12-13T15:00:25Z</time>
      </trkpt>
      <trkpt lat="48.38238" lon="2.79483">
        <ele>46.76</ele>
        <time>2018-12-13T15:00:26Z</time>
      </trkpt>
      <trkpt lat="48.38227" lon="2.79506">
        <ele>43.4</ele>
        <time>2018-12-13T15:00:44Z</time>
      </trkpt>
      <trkpt lat="48.38217" lon="2.79524">
        <ele>41.95</ele>
        <time>2018-12-13T15:01:02Z</time>
      </trkpt>
      <trkpt lat="48.38209" lon="2.79552">
        <ele>40.51</ele>
        <time>2018-12-13T15:01:21Z</time>
      </trkpt>
      <trkpt lat="48.38199" lon="2.79583">
        <ele>39.07</ele>
        <time>2018-12-13T15:01:41Z</time>
      </trkpt>
      <trkpt lat="48.38183" lon="2.79609">
        <ele>40.03</ele>
        <time>2018-12-13T15:02:01Z</time>
      </trkpt>
      <trkpt lat="48.3817" lon="2.79634">
        <ele>39.55</ele>
        <time>2018-12-13T15:02:19Z</time>
      </trkpt>
      <trkpt lat="48.38169" lon="2.79635">
        <ele>39.55</ele>
        <time>2018-12-13T15:02:20Z</time>
      </trkpt>
      <trkpt lat="48.38158" lon="2.79653">
        <ele>39.07</ele>
        <time>2018-12-13T15:02:34Z</time>
      </trkpt>
      <trkpt lat="48.38141" lon="2.79684">
        <ele>38.59</ele>
        <time>2018-12-13T15:02:53Z</time>
      </trkpt>
      <trkpt lat="48.38128" lon="2.79706">
        <ele>38.11</ele>
        <time>2018-12-13T15:03:11Z</time>
      </trkpt>
      <trkpt lat="48.38106" lon="2.79746">
        <ele>37.63</ele>
        <time>2018-12-13T15:03:36Z</time>
      </trkpt>
      <trkpt lat="48.3809" lon="2.79773">
        <ele>38.59</ele>
        <time>2018-12-13T15:03:56Z</time>
      </trkpt>
      <trkpt lat="48.38077" lon="2.79793">
        <ele>37.63</ele>
        <time>2018-12-13T15:04:08Z</time>
      </trkpt>
      <trkpt lat="48.38068" lon="2.79808">
        <ele>38.11</ele>
        <time>2018-12-13T15:04:23Z</time>
      </trkpt>
      <trkpt lat="48.38063" lon="2.79813">
        <ele>37.63</ele>
        <time>2018-12-13T15:04:27Z</time>
      </trkpt>
      <trkpt lat="48.38062" lon="2.79814">
        <ele>37.63</ele>
        <time>2018-12-13T15:04:30Z</time>
      </trkpt>
      <trkpt lat="48.38054" lon="2.79826">
        <ele>37.63</ele>
        <time>2018-12-13T15:04:41Z</time>
      </trkpt>
      <trkpt lat="48.38049" lon="2.79833">
        <ele>37.63</ele>
        <time>2018-12-13T15:04:49Z</time>
      </trkpt>
      <trkpt lat="48.38035" lon="2.79849">
        <ele>38.59</ele>
        <time>2018-12-13T15:05:08Z</time>
      </trkpt>
      <trkpt lat="48.38027" lon="2.7986">
        <ele>38.59</ele>
        <time>2018-12-13T15:05:21Z</time>
      </trkpt>
      <trkpt lat="48.38022" lon="2.79875">
        <ele>39.55</ele>
        <time>2018-12-13T15:05:33Z</time>
      </trkpt>
      <trkpt lat="48.38014" lon="2.79885">
        <ele>39.07</ele>
        <time>2018-12-13T15:05:41Z</time>
      </trkpt>
      <trkpt lat="48.38002" lon="2.79904">
        <ele>39.55</ele>
        <time>2018-12-13T15:05:56Z</time>
      </trkpt>
      <trkpt lat="48.37989" lon="2.79928">
        <ele>39.55</ele>
        <time>2018-12-13T15:06:16Z</time>
      </trkpt>
      <trkpt lat="48.3798" lon="2.79942">
        <ele>40.03</ele>
        <time>2018-12-13T15:06:32Z</time>
      </trkpt>
      <trkpt lat="48.37973" lon="2.79955">
        <ele>39.55</ele>
        <time>2018-12-13T15:06:43Z</time>
      </trkpt>
      <trkpt lat="48.3796" lon="2.79979">
        <ele>40.99</ele>
        <time>2018-12-13T15:07:03Z</time>
      </trkpt>
      <trkpt lat="48.37947" lon="2.80001">
        <ele>40.99</ele>
        <time>2018-12-13T15:07:20Z</time>
      </trkpt>
      <trkpt lat="48.37935" lon="2.8002">
        <ele>41.47</ele>
        <time>2018-12-13T15:07:37Z</time>
      </trkpt>
      <trkpt lat="48.37928" lon="2.80033">
        <ele>41.47</ele>
        <time>2018-12-13T15:07:49Z</time>
      </trkpt>
      <trkpt lat="48.37911" lon="2.80056">
        <ele>42.92</ele>
        <time>2018-12-13T15:08:08Z</time>
      </trkpt>
      <trkpt lat="48.37898" lon="2.80075">
        <ele>42.92</ele>
        <time>2018-12-13T15:08:25Z</time>
      </trkpt>
      <trkpt lat="48.37885" lon="2.80095">
        <ele>43.4</ele>
        <time>2018-12-13T15:08:42Z</time>
      </trkpt>
      <trkpt lat="48.3787" lon="2.80115">
        <ele>44.36</ele>
        <time>2018-12-13T15:08:57Z</time>
      </trkpt>
      <trkpt lat="48.37858" lon="2.80135">
        <ele>43.88</ele>
        <time>2018-12-13T15:09:13Z</time>
      </trkpt>
      <trkpt lat="48.37854" lon="2.80162">
        <ele>43.4</ele>
        <time>2018-12-13T15:09:29Z</time>
      </trkpt>
      <trkpt lat="48.37853" lon="2.80169">
        <ele>42.92</ele>
        <time>2018-12-13T15:09:33Z</time>
      </trkpt>
      <trkpt lat="48.37853" lon="2.80192">
        <ele>42.44</ele>
        <time>2018-12-13T15:09:49Z</time>
      </trkpt>
      <trkpt lat="48.37853" lon="2.80214">
        <ele>41.95</ele>
        <time>2018-12-13T15:10:04Z</time>
      </trkpt>
      <trkpt lat="48.37853" lon="2.80235">
        <ele>40.99</ele>
        <time>2018-12-13T15:10:18Z</time>
      </trkpt>
      <trkpt lat="48.37853" lon="2.80247">
        <ele>40.99</ele>
        <time>2018-12-13T15:10:24Z</time>
      </trkpt>
      <trkpt lat="48.37853" lon="2.80274">
        <ele>40.03</ele>
        <time>2018-12-13T15:10:39Z</time>
      </trkpt>
      <trkpt lat="48.37853" lon="2.80303">
        <ele>40.51</ele>
        <time>2018-12-13T15:10:54Z</time>
      </trkpt>
      <trkpt lat="48.37853" lon="2.8033">
        <ele>39.55</ele>
        <time>2018-12-13T15:11:10Z</time>
      </trkpt>
      <trkpt lat="48.37854" lon="2.80357">
        <ele>38.59</ele>
        <time>2018-12-13T15:11:27Z</time>
      </trkpt>
      <trkpt lat="48.37852" lon="2.80384">
        <ele>39.07</ele>
        <time>2018-12-13T15:11:41Z</time>
      </trkpt>
      <trkpt lat="48.37852" lon="2.80414">
        <ele>38.11</ele>
        <time>2018-12-13T15:12:00Z</time>
      </trkpt>
      <trkpt lat="48.37857" lon="2.80444">
        <ele>38.11</ele>
        <time>2018-12-13T15:12:18Z</time>
      </trkpt>
      <trkpt lat="48.37863" lon="2.80478">
        <ele>37.15</ele>
        <time>2018-12-13T15:12:38Z</time>
      </trkpt>
      <trkpt lat="48.37864" lon="2.80502">
        <ele>37.15</ele>
        <time>2018-12-13T15:12:54Z</time>
      </trkpt>
      <trkpt lat="48.37866" lon="2.80532">
        <ele>37.63</ele>
        <time>2018-12-13T15:13:11Z</time>
      </trkpt>
      <trkpt lat="48.37869" lon="2.80556">
        <ele>37.15</ele>
        <time>2018-12-13T15:13:26Z</time>
      </trkpt>
      <trkpt lat="48.37872" lon="2.80589">
        <ele>36.67</ele>
        <time>2018-12-13T15:13:45Z</time>
      </trkpt>
      <trkpt lat="48.37875" lon="2.80599">
        <ele>37.15</ele>
        <time>2018-12-13T15:13:51Z</time>
      </trkpt>
      <trkpt lat="48.3788" lon="2.80631">
        <ele>37.63</ele>
        <time>2018-12-13T15:14:10Z</time>
      </trkpt>
      <trkpt lat="48.37884" lon="2.80655">
        <ele>37.63</ele>
        <time>2018-12-13T15:14:25Z</time>
      </trkpt>
      <trkpt lat="48.37887" lon="2.80684">
        <ele>38.11</ele>
        <time>2018-12-13T15:14:43Z</time>
      </trkpt>
      <trkpt lat="48.37891" lon="2.80709">
        <ele>37.63</ele>
        <time>2018-12-13T15:15:00Z</time>
      </trkpt>
      <trkpt lat="48.37896" lon="2.80741">
        <ele>37.63</ele>
        <time>2018-12-13T15:15:19Z</time>
      </trkpt>
      <trkpt lat="48.37899" lon="2.80762">
        <ele>38.11</ele>
        <time>2018-12-13T15:15:33Z</time>
      </trkpt>
      <trkpt lat="48.379" lon="2.80771">
        <ele>38.59</ele>
        <time>2018-12-13T15:15:48Z</time>
      </trkpt>
      <trkpt lat="48.37902" lon="2.80786">
        <ele>39.55</ele>
        <time>2018-12-13T15:16:07Z</time>
      </trkpt>
      <trkpt lat="48.37903" lon="2.80805">
        <ele>38.59</ele>
        <time>2018-12-13T15:16:24Z</time>
      </trkpt>
      <trkpt lat="48.37904" lon="2.80835">
        <ele>38.59</ele>
        <time>2018-12-13T15:16:42Z</time>
      </trkpt>
      <trkpt lat="48.37906" lon="2.80868">
        <ele>38.59</ele>
        <time>2018-12-13T15:17:01Z</time>
      </trkpt>
      <trkpt lat="48.37912" lon="2.80894">
        <ele>39.07</ele>
        <time>2018-12-13T15:17:18Z</time>
      </trkpt>
      <trkpt lat="48.37922" lon="2.80918">
        <ele>39.07</ele>
        <time>2018-12-13T15:17:35Z</time>
      </trkpt>
      <trkpt lat="48.37926" lon="2.80933">
        <ele>38.59</ele>
        <time>2018-12-13T15:17:45Z</time>
      </trkpt>
      <trkpt lat="48.37929" lon="2.80956">
        <ele>38.11</ele>
        <time>2018-12-13T15:18:02Z</time>
      </trkpt>
      <trkpt lat="48.37935" lon="2.80971">
        <ele>38.11</ele>
        <time>2018-12-13T15:18:18Z</time>
      </trkpt>
      <trkpt lat="48.37947" lon="2.80998">
        <ele>37.15</ele>
        <time>2018-12-13T15:18:38Z</time>
      </trkpt>
      <trkpt lat="48.37955" lon="2.81027">
        <ele>36.67</ele>
        <time>2018-12-13T15:18:58Z</time>
      </trkpt>
      <trkpt lat="48.37947" lon="2.81042">
        <ele>37.63</ele>
        <time>2018-12-13T15:19:13Z</time>
      </trkpt>
      <trkpt lat="48.37935" lon="2.81079">
        <ele>37.63</ele>
        <time>2018-12-13T15:19:33Z</time>
      </trkpt>
      <trkpt lat="48.37924" lon="2.81108">
        <ele>38.11</ele>
        <time>2018-12-13T15:19:50Z</time>
      </trkpt>
      <trkpt lat="48.37914" lon="2.81132">
        <ele>38.11</ele>
        <time>2018-12-13T15:20:07Z</time>
      </trkpt>
      <trkpt lat="48.37904" lon="2.81158">
        <ele>39.55</ele>
        <time>2018-12-13T15:20:25Z</time>
      </trkpt>
      <trkpt lat="48.37897" lon="2.81178">
        <ele>39.55</ele>
        <time>2018-12-13T15:20:40Z</time>
      </trkpt>
      <trkpt lat="48.37889" lon="2.81203">
        <ele>39.07</ele>
        <time>2018-12-13T15:20:56Z</time>
      </trkpt>
      <trkpt lat="48.3788" lon="2.81225">
        <ele>39.55</ele>
        <time>2018-12-13T15:21:11Z</time>
      </trkpt>
      <trkpt lat="48.37871" lon="2.81247">
        <ele>39.55</ele>
        <time>2018-12-13T15:21:27Z</time>
      </trkpt>
      <trkpt lat="48.37861" lon="2.81268">
        <ele>40.51</ele>
        <time>2018-12-13T15:21:42Z</time>
      </trkpt>
      <trkpt lat="48.37849" lon="2.8129">
        <ele>40.51</ele>
        <time>2018-12-13T15:21:58Z</time>
      </trkpt>
      <trkpt lat="48.37843" lon="2.813">
        <ele>40.51</ele>
        <time>2018-12-13T15:22:08Z</time>
      </trkpt>
      <trkpt lat="48.37828" lon="2.81318">
        <ele>39.55</ele>
        <time>2018-12-13T15:22:24Z</time>
      </trkpt>
      <trkpt lat="48.37809" lon="2.81332">
        <ele>40.51</ele>
        <time>2018-12-13T15:22:43Z</time>
      </trkpt>
      <trkpt lat="48.37787" lon="2.81349">
        <ele>40.99</ele>
        <time>2018-12-13T15:23:02Z</time>
      </trkpt>
      <trkpt lat="48.37769" lon="2.81361">
        <ele>40.03</ele>
        <time>2018-12-13T15:23:20Z</time>
      </trkpt>
      <trkpt lat="48.37756" lon="2.81364">
        <ele>40.03</ele>
        <time>2018-12-13T15:23:34Z</time>
      </trkpt>
      <trkpt lat="48.37732" lon="2.81371">
        <ele>40.51</ele>
        <time>2018-12-13T15:23:56Z</time>
      </trkpt>
      <trkpt lat="48.37711" lon="2.81378">
        <ele>40.51</ele>
        <time>2018-12-13T15:24:14Z</time>
      </trkpt>
      <trkpt lat="48.37695" lon="2.81384">
        <ele>40.99</ele>
        <time>2018-12-13T15:24:28Z</time>
      </trkpt>
      <trkpt lat="48.37674" lon="2.8139">
        <ele>40.99</ele>
        <time>2018-12-13T15:24:46Z</time>
      </trkpt>
      <trkpt lat="48.37657" lon="2.81401">
        <ele>40.51</ele>
        <time>2018-12-13T15:25:06Z</time>
      </trkpt>
      <trkpt lat="48.37648" lon="2.81402">
        <ele>41.47</ele>
        <time>2018-12-13T15:25:19Z</time>
      </trkpt>
      <trkpt lat="48.3764" lon="2.81404">
        <ele>41.47</ele>
        <time>2018-12-13T15:25:26Z</time>
      </trkpt>
      <trkpt lat="48.37638" lon="2.81402">
        <ele>40.51</ele>
        <time>2018-12-13T15:25:29Z</time>
      </trkpt>
      <trkpt lat="48.37631" lon="2.81406">
        <ele>41.47</ele>
        <time>2018-12-13T15:25:36Z</time>
      </trkpt>
      <trkpt lat="48.37617" lon="2.81405">
        <ele>41.47</ele>
        <time>2018-12-13T15:25:50Z</time>
      </trkpt>
      <trkpt lat="48.37607" lon="2.81409">
        <ele>40.99</ele>
        <time>2018-12-13T15:26:05Z</time>
      </trkpt>
      <trkpt lat="48.37593" lon="2.81413">
        <ele>40.99</ele>
        <time>2018-12-13T15:26:17Z</time>
      </trkpt>
      <trkpt lat="48.37571" lon="2.81418">
        <ele>40.99</ele>
        <time>2018-12-13T15:26:34Z</time>
      </trkpt>
      <trkpt lat="48.37554" lon="2.81423">
        <ele>40.03</ele>
        <time>2018-12-13T15:26:51Z</time>
      </trkpt>
      <trkpt lat="48.37543" lon="2.81431">
        <ele>41.47</ele>
        <time>2018-12-13T15:27:06Z</time>
      </trkpt>
      <trkpt lat="48.37529" lon="2.81438">
        <ele>40.99</ele>
        <time>2018-12-13T15:27:22Z</time>
      </trkpt>
      <trkpt lat="48.37513" lon="2.8145">
        <ele>41.95</ele>
        <time>2018-12-13T15:27:37Z</time>
      </trkpt>
      <trkpt lat="48.37489" lon="2.81468">
        <ele>42.44</ele>
        <time>2018-12-13T15:27:56Z</time>
      </trkpt>
      <trkpt lat="48.37473" lon="2.8147">
        <ele>42.44</ele>
        <time>2018-12-13T15:28:11Z</time>
      </trkpt>
      <trkpt lat="48.37459" lon="2.81452">
        <ele>43.4</ele>
        <time>2018-12-13T15:28:29Z</time>
      </trkpt>
      <trkpt lat="48.37441" lon="2.81439">
        <ele>43.88</ele>
        <time>2018-12-13T15:28:47Z</time>
      </trkpt>
      <trkpt lat="48.37434" lon="2.81436">
        <ele>43.88</ele>
        <time>2018-12-13T15:28:54Z</time>
      </trkpt>
      <trkpt lat="48.37421" lon="2.81432">
        <ele>44.36</ele>
        <time>2018-12-13T15:29:07Z</time>
      </trkpt>
      <trkpt lat="48.37399" lon="2.81424">
        <ele>44.84</ele>
        <time>2018-12-13T15:29:28Z</time>
      </trkpt>
      <trkpt lat="48.37389" lon="2.81419">
        <ele>45.32</ele>
        <time>2018-12-13T15:29:46Z</time>
      </trkpt>
      <trkpt lat="48.37381" lon="2.81418">
        <ele>44.84</ele>
        <time>2018-12-13T15:30:08Z</time>
      </trkpt>
      <trkpt lat="48.37379" lon="2.81427">
        <ele>44.84</ele>
        <time>2018-12-13T15:30:24Z</time>
      </trkpt>
      <trkpt lat="48.37375" lon="2.81434">
        <ele>44.84</ele>
        <time>2018-12-13T15:30:37Z</time>
      </trkpt>
      <trkpt lat="48.37375" lon="2.81435">
        <ele>46.76</ele>
        <time>2018-12-13T15:30:53Z</time>
      </trkpt>
      <trkpt lat="48.37374" lon="2.81444">
        <ele>45.8</ele>
        <time>2018-12-13T15:31:06Z</time>
      </trkpt>
      <trkpt lat="48.37357" lon="2.81423">
        <ele>46.28</ele>
        <time>2018-12-13T15:31:20Z</time>
      </trkpt>
      <trkpt lat="48.37345" lon="2.81412">
        <ele>46.28</ele>
        <time>2018-12-13T15:31:33Z</time>
      </trkpt>
      <trkpt lat="48.373" lon="2.81354">
        <ele>48.2</ele>
        <time>2018-12-13T15:32:24Z</time>
      </trkpt>
      <trkpt lat="48.37289" lon="2.81336">
        <ele>49.16</ele>
        <time>2018-12-13T15:32:40Z</time>
      </trkpt>
      <trkpt lat="48.37277" lon="2.81318">
        <ele>49.16</ele>
        <time>2018-12-13T15:32:56Z</time>
      </trkpt>
      <trkpt lat="48.37263" lon="2.81296">
        <ele>50.13</ele>
        <time>2018-12-13T15:33:13Z</time>
      </trkpt>
      <trkpt lat="48.37253" lon="2.81283">
        <ele>50.61</ele>
        <time>2018-12-13T15:33:27Z</time>
      </trkpt>
      <trkpt lat="48.37248" lon="2.81276">
        <ele>51.09</ele>
        <time>2018-12-13T15:33:32Z</time>
      </trkpt>
      <trkpt lat="48.37228" lon="2.81239">
        <ele>51.57</ele>
        <time>2018-12-13T15:34:03Z</time>
      </trkpt>
      <trkpt lat="48.37217" lon="2.81217">
        <ele>51.09</ele>
        <time>2018-12-13T15:34:18Z</time>
      </trkpt>
      <trkpt lat="48.37204" lon="2.81196">
        <ele>52.05</ele>
        <time>2018-12-13T15:34:36Z</time>
      </trkpt>
      <trkpt lat="48.37191" lon="2.8118">
        <ele>53.01</ele>
        <time>2018-12-13T15:34:52Z</time>
      </trkpt>
      <trkpt lat="48.37181" lon="2.8116">
        <ele>53.01</ele>
        <time>2018-12-13T15:35:06Z</time>
      </trkpt>
      <trkpt lat="48.37167" lon="2.81144">
        <ele>53.49</ele>
        <time>2018-12-13T15:35:24Z</time>
      </trkpt>
      <trkpt lat="48.37144" lon="2.81115">
        <ele>53.97</ele>
        <time>2018-12-13T15:36:03Z</time>
      </trkpt>
      <trkpt lat="48.37144" lon="2.81094">
        <ele>54.93</ele>
        <time>2018-12-13T15:36:19Z</time>
      </trkpt>
      <trkpt lat="48.37147" lon="2.8109">
        <ele>54.93</ele>
        <time>2018-12-13T15:36:21Z</time>
      </trkpt>
      <trkpt lat="48.37159" lon="2.81052">
        <ele>55.41</ele>
        <time>2018-12-13T15:36:39Z</time>
      </trkpt>
      <trkpt lat="48.37169" lon="2.81036">
        <ele>54.93</ele>
        <time>2018-12-13T15:36:53Z</time>
      </trkpt>
      <trkpt lat="48.37175" lon="2.81025">
        <ele>55.89</ele>
        <time>2018-12-13T15:37:06Z</time>
      </trkpt>
      <trkpt lat="48.37173" lon="2.81001">
        <ele>55.89</ele>
        <time>2018-12-13T15:37:23Z</time>
      </trkpt>
      <trkpt lat="48.3717" lon="2.80997">
        <ele>56.37</ele>
        <time>2018-12-13T15:37:28Z</time>
      </trkpt>
      <trkpt lat="48.37157" lon="2.80969">
        <ele>56.86</ele>
        <time>2018-12-13T15:37:46Z</time>
      </trkpt>
      <trkpt lat="48.37157" lon="2.80971">
        <ele>56.86</ele>
        <time>2018-12-13T15:37:47Z</time>
      </trkpt>
      <trkpt lat="48.37136" lon="2.80985">
        <ele>57.34</ele>
        <time>2018-12-13T15:38:07Z</time>
      </trkpt>
      <trkpt lat="48.37118" lon="2.80998">
        <ele>58.78</ele>
        <time>2018-12-13T15:38:25Z</time>
      </trkpt>
      <trkpt lat="48.37104" lon="2.80999">
        <ele>59.74</ele>
        <time>2018-12-13T15:38:40Z</time>
      </trkpt>
      <trkpt lat="48.37095" lon="2.80994">
        <ele>60.7</ele>
        <time>2018-12-13T15:38:49Z</time>
      </trkpt>
      <trkpt lat="48.37082" lon="2.80974">
        <ele>61.66</ele>
        <time>2018-12-13T15:39:08Z</time>
      </trkpt>
      <trkpt lat="48.37073" lon="2.80956">
        <ele>63.1</ele>
        <time>2018-12-13T15:39:24Z</time>
      </trkpt>
      <trkpt lat="48.37049" lon="2.8092">
        <ele>65.03</ele>
        <time>2018-12-13T15:39:59Z</time>
      </trkpt>
      <trkpt lat="48.37038" lon="2.80903">
        <ele>66.47</ele>
        <time>2018-12-13T15:40:15Z</time>
      </trkpt>
      <trkpt lat="48.37024" lon="2.80882">
        <ele>67.91</ele>
        <time>2018-12-13T15:40:33Z</time>
      </trkpt>
      <trkpt lat="48.37017" lon="2.80864">
        <ele>67.91</ele>
        <time>2018-12-13T15:40:47Z</time>
      </trkpt>
      <trkpt lat="48.37007" lon="2.80844">
        <ele>69.35</ele>
        <time>2018-12-13T15:41:04Z</time>
      </trkpt>
      <trkpt lat="48.36994" lon="2.80823">
        <ele>70.79</ele>
        <time>2018-12-13T15:41:24Z</time>
      </trkpt>
      <trkpt lat="48.36986" lon="2.80804">
        <ele>71.27</ele>
        <time>2018-12-13T15:41:41Z</time>
      </trkpt>
      <trkpt lat="48.36973" lon="2.80786">
        <ele>72.72</ele>
        <time>2018-12-13T15:41:58Z</time>
      </trkpt>
      <trkpt lat="48.36962" lon="2.80767">
        <ele>73.2</ele>
        <time>2018-12-13T15:42:16Z</time>
      </trkpt>
      <trkpt lat="48.36951" lon="2.80745">
        <ele>74.16</ele>
        <time>2018-12-13T15:42:35Z</time>
      </trkpt>
      <trkpt lat="48.36941" lon="2.80728">
        <ele>75.12</ele>
        <time>2018-12-13T15:42:51Z</time>
      </trkpt>
      <trkpt lat="48.36933" lon="2.80716">
        <ele>76.08</ele>
        <time>2018-12-13T15:43:02Z</time>
      </trkpt>
      <trkpt lat="48.36921" lon="2.80695">
        <ele>77.04</ele>
        <time>2018-12-13T15:43:19Z</time>
      </trkpt>
      <trkpt lat="48.36908" lon="2.80674">
        <ele>77.52</ele>
        <time>2018-12-13T15:43:36Z</time>
      </trkpt>
      <trkpt lat="48.36895" lon="2.80657">
        <ele>79.45</ele>
        <time>2018-12-13T15:43:52Z</time>
      </trkpt>
      <trkpt lat="48.36881" lon="2.80636">
        <ele>79.45</ele>
        <time>2018-12-13T15:44:12Z</time>
      </trkpt>
      <trkpt lat="48.36871" lon="2.80628">
        <ele>79.93</ele>
        <time>2018-12-13T15:44:40Z</time>
      </trkpt>
      <trkpt lat="48.3687" lon="2.80627">
        <ele>80.41</ele>
        <time>2018-12-13T15:44:59Z</time>
      </trkpt>
      <trkpt lat="48.36868" lon="2.80627">
        <ele>80.41</ele>
        <time>2018-12-13T15:45:28Z</time>
      </trkpt>
      <trkpt lat="48.36869" lon="2.80627">
        <ele>80.41</ele>
        <time>2018-12-13T15:45:54Z</time>
      </trkpt>
      <trkpt lat="48.36848" lon="2.80594">
        <ele>81.37</ele>
        <time>2018-12-13T15:47:22Z</time>
      </trkpt>
      <trkpt lat="48.36847" lon="2.8059">
        <ele>81.37</ele>
        <time>2018-12-13T15:48:15Z</time>
      </trkpt>
    </trkseg>
  </trk>
</gpx>